createdAt,value
2023-05-21T00:01:08.166Z,6.03
2023-05-21T00:03:36.455Z,7.90
2023-05-21T00:06:04.021Z,8.20
2023-05-21T00:08:31.192Z,7.13
2023-05-21T00:10:58.038Z,6.13
2023-05-21T00:13:24.791Z,5.90
2023-05-21T00:15:51.593Z,6.07
2023-05-21T00:18:18.468Z,6.50
2023-05-21T00:20:45.851Z,6.60
2023-05-21T00:23:12.583Z,6.10
2023-05-21T00:25:39.320Z,5.87
2023-05-21T00:28:06.004Z,6.10
2023-05-21T00:30:32.754Z,5.10
2023-05-21T00:33:02.505Z,6.30
2023-05-21T00:35:29.559Z,5.87
2023-05-21T00:37:56.462Z,6.17
2023-05-21T00:40:23.283Z,5.63
2023-05-21T00:42:50.000Z,5.93
2023-05-21T00:45:16.764Z,5.67
2023-05-21T00:47:44.071Z,5.77
2023-05-21T00:50:12.135Z,6.23
2023-05-21T00:52:42.034Z,4.90
2023-05-21T00:55:09.878Z,5.80
2023-05-21T00:57:37.408Z,5.80
2023-05-21T01:00:08.168Z,5.40
2023-05-21T01:02:38.416Z,4.60
2023-05-21T01:05:06.195Z,5.20
2023-05-21T01:07:39.923Z,5.47
2023-05-21T01:10:08.621Z,4.90
2023-05-21T01:12:36.334Z,5.43
2023-05-21T01:15:04.198Z,5.83
2023-05-21T01:17:31.894Z,5.73
2023-05-21T01:19:59.509Z,5.37
2023-05-21T01:22:28.591Z,4.87
2023-05-21T01:24:55.682Z,5.23
2023-05-21T01:27:22.953Z,5.20
2023-05-21T01:29:49.739Z,5.50
2023-05-21T01:32:38.636Z,5.40
2023-05-21T01:35:11.410Z,5.20
2023-05-21T01:38:02.365Z,5.17
2023-05-21T01:40:47.491Z,4.93
2023-05-21T01:43:15.493Z,5.70
2023-05-21T01:45:44.144Z,6.10
2023-05-21T01:48:12.977Z,4.67
2023-05-21T01:50:41.712Z,5.27
2023-05-21T01:53:08.431Z,5.00
2023-05-21T01:55:36.144Z,5.47
2023-05-21T01:58:03.155Z,5.23
2023-05-21T02:00:30.917Z,5.63
2023-05-21T02:02:58.838Z,5.03
2023-05-21T02:05:25.880Z,4.90
2023-05-21T02:07:52.862Z,4.23
2023-05-21T02:10:19.660Z,4.80
2023-05-21T02:12:46.564Z,5.03
2023-05-21T02:15:18.187Z,4.60
2023-05-21T02:17:46.403Z,4.80
2023-05-21T02:20:13.921Z,4.70
2023-05-21T02:22:45.972Z,4.30
2023-05-21T02:25:15.945Z,4.70
2023-05-21T02:27:43.390Z,5.63
2023-05-21T02:30:12.229Z,4.97
2023-05-21T02:32:42.655Z,4.60
2023-05-21T02:35:11.467Z,4.33
2023-05-21T02:37:40.344Z,7.17
2023-05-21T02:40:08.182Z,5.93
2023-05-21T02:42:36.641Z,5.70
2023-05-21T02:45:03.747Z,4.50
2023-05-21T02:47:30.473Z,4.63
2023-05-21T02:49:59.916Z,4.40
2023-05-21T02:52:26.735Z,4.50
2023-05-21T02:54:53.719Z,3.93
2023-05-21T02:57:20.598Z,3.87
2023-05-21T02:59:47.298Z,3.77
2023-05-21T03:02:13.951Z,4.10
2023-05-21T03:04:46.138Z,4.07
2023-05-21T03:07:14.526Z,4.63
2023-05-21T03:09:42.427Z,5.10
2023-05-21T03:12:11.080Z,4.67
2023-05-21T03:14:38.347Z,4.90
2023-05-21T03:17:06.367Z,4.70
2023-05-21T03:19:36.817Z,5.40
2023-05-21T03:22:04.718Z,4.73
2023-05-21T03:24:31.855Z,4.40
2023-05-21T03:27:03.349Z,4.90
2023-05-21T03:29:30.081Z,4.53
2023-05-21T03:31:57.765Z,5.53
2023-05-21T03:34:24.602Z,5.07
2023-05-21T03:36:51.410Z,5.40
2023-05-21T03:39:18.182Z,4.53
2023-05-21T03:41:45.185Z,5.97
2023-05-21T03:44:12.029Z,5.37
2023-05-21T03:46:38.834Z,4.97
2023-05-21T03:49:06.002Z,5.97
2023-05-21T03:51:32.651Z,5.80
2023-05-21T03:53:59.940Z,7.47
2023-05-21T03:56:27.001Z,8.03
2023-05-21T03:58:53.851Z,8.33
2023-05-21T04:01:20.639Z,8.00
2023-05-21T04:03:47.590Z,7.33
2023-05-21T04:06:15.629Z,7.40
2023-05-21T04:08:42.744Z,8.10
2023-05-21T04:11:09.533Z,7.63
2023-05-21T04:13:36.366Z,7.43
2023-05-21T04:16:03.150Z,7.47
2023-05-21T04:18:29.934Z,5.93
2023-05-21T04:20:56.728Z,8.00
2023-05-21T04:23:23.747Z,8.10
2023-05-21T04:25:51.151Z,6.37
2023-05-21T04:28:21.181Z,7.20
2023-05-21T04:30:48.407Z,7.60
2023-05-21T04:33:18.427Z,7.37
2023-05-21T04:35:50.244Z,7.43
2023-05-21T04:38:19.616Z,7.90
2023-05-21T04:40:50.787Z,5.70
2023-05-21T04:43:17.494Z,7.00
2023-05-21T04:45:45.222Z,6.80
2023-05-21T04:48:12.729Z,6.97
2023-05-21T04:50:41.700Z,7.03
2023-05-21T04:53:08.858Z,6.53
2023-05-21T04:55:40.037Z,6.43
2023-05-21T04:58:11.278Z,7.03
2023-05-21T05:00:42.309Z,7.37
2023-05-21T05:03:09.223Z,6.73
2023-05-21T05:05:36.317Z,6.40
2023-05-21T05:08:04.155Z,6.47
2023-05-21T05:10:30.839Z,6.80
2023-05-21T05:12:57.543Z,7.07
2023-05-21T05:15:24.204Z,6.50
2023-05-21T05:17:50.969Z,5.80
2023-05-21T05:20:17.869Z,6.60
2023-05-21T05:22:44.484Z,6.57
2023-05-21T05:25:11.162Z,6.10
2023-05-21T05:27:38.613Z,6.93
2023-05-21T05:30:06.150Z,6.93
2023-05-21T05:32:32.840Z,6.70
2023-05-21T05:35:01.611Z,7.00
2023-05-21T05:37:29.141Z,6.87
2023-05-21T05:39:58.160Z,7.17
2023-05-21T05:42:24.947Z,6.90
2023-05-21T05:44:51.584Z,7.10
2023-05-21T05:47:18.244Z,6.10
2023-05-21T05:49:45.793Z,6.87
2023-05-21T05:52:12.705Z,7.10
2023-05-21T05:54:39.379Z,6.37
2023-05-21T05:57:06.342Z,7.97
2023-05-21T05:59:33.954Z,7.90
2023-05-21T06:02:01.852Z,7.27
2023-05-21T06:04:30.285Z,6.50
2023-05-21T06:07:00.983Z,6.43
2023-05-21T06:09:27.655Z,6.63
2023-05-21T06:11:54.411Z,6.93
2023-05-21T06:14:21.123Z,6.50
2023-05-21T06:16:47.855Z,6.40
2023-05-21T06:19:14.720Z,5.60
2023-05-21T06:21:41.429Z,4.97
2023-05-21T06:24:08.106Z,5.77
2023-05-21T06:26:34.748Z,5.70
2023-05-21T06:29:01.443Z,6.20
2023-05-21T06:31:28.830Z,4.73
2023-05-21T06:33:55.656Z,4.43
2023-05-21T06:36:22.400Z,4.13
2023-05-21T06:38:49.186Z,3.00
2023-05-21T06:41:15.952Z,3.33
2023-05-21T06:43:42.618Z,3.30
2023-05-21T06:46:09.450Z,3.43
2023-05-21T06:48:36.203Z,3.20
2023-05-21T06:51:02.879Z,2.50
2023-05-21T06:53:29.653Z,3.40
2023-05-21T06:55:56.295Z,3.67
2023-05-21T06:58:23.081Z,3.07
2023-05-21T07:00:49.859Z,4.30
2023-05-21T07:03:17.344Z,4.10
2023-05-21T07:05:44.246Z,4.07
2023-05-21T07:08:12.187Z,4.23
2023-05-21T07:10:39.016Z,4.23
2023-05-21T07:13:06.063Z,4.87
2023-05-21T07:15:32.706Z,4.93
2023-05-21T07:17:59.423Z,3.90
2023-05-21T07:20:26.155Z,3.63
2023-05-21T07:22:52.839Z,3.87
2023-05-21T07:25:19.654Z,3.40
2023-05-21T07:27:46.512Z,3.83
2023-05-21T07:30:14.713Z,3.53
2023-05-21T07:32:41.553Z,4.07
2023-05-21T07:35:08.594Z,3.97
2023-05-21T07:37:35.341Z,3.33
2023-05-21T07:40:02.260Z,3.37
2023-05-21T07:42:28.896Z,3.43
2023-05-21T07:44:55.565Z,4.00
2023-05-21T07:47:23.555Z,3.37
2023-05-21T07:49:50.337Z,3.63
2023-05-21T07:52:17.095Z,3.40
2023-05-21T07:54:43.858Z,3.10
2023-05-21T07:57:10.552Z,3.70
2023-05-21T07:59:37.272Z,3.20
2023-05-21T08:02:03.972Z,3.30
2023-05-21T08:04:30.944Z,3.10
2023-05-21T08:06:57.715Z,3.60
2023-05-21T08:09:24.399Z,3.40
2023-05-21T08:11:51.095Z,3.40
2023-05-21T08:14:17.873Z,2.90
2023-05-21T08:16:45.241Z,3.60
2023-05-21T08:19:11.978Z,3.20
2023-05-21T08:21:38.657Z,2.73
2023-05-21T08:24:07.266Z,3.40
2023-05-21T08:26:33.950Z,3.10
2023-05-21T08:29:03.334Z,2.80
2023-05-21T08:31:30.983Z,2.80
2023-05-21T08:33:57.774Z,3.30
2023-05-21T08:36:25.107Z,2.83
2023-05-21T08:38:52.978Z,2.70
2023-05-21T08:41:23.134Z,3.23
2023-05-21T08:43:56.631Z,2.90
2023-05-21T08:46:25.103Z,3.23
2023-05-21T08:48:55.145Z,2.77
2023-05-21T08:51:22.416Z,3.33
2023-05-21T08:53:51.512Z,2.70
2023-05-21T08:56:18.484Z,3.13
2023-05-21T08:58:49.078Z,3.13
2023-05-21T09:01:19.261Z,2.40
2023-05-21T09:03:47.220Z,2.80
2023-05-21T09:06:14.291Z,3.07
2023-05-21T09:08:45.998Z,3.30
2023-05-21T09:11:14.096Z,3.30
2023-05-21T09:13:41.773Z,2.87
2023-05-21T09:16:10.219Z,2.40
2023-05-21T09:18:36.877Z,3.13
2023-05-21T09:21:29.932Z,2.90
2023-05-21T09:23:58.068Z,3.00
2023-05-21T09:26:25.856Z,3.30
2023-05-21T09:28:57.662Z,2.70
2023-05-21T09:31:25.924Z,2.80
2023-05-21T09:33:53.379Z,3.40
2023-05-21T09:36:20.457Z,2.60
2023-05-21T09:38:52.166Z,3.13
2023-05-21T09:41:21.903Z,2.40
2023-05-21T09:43:49.310Z,2.23
2023-05-21T09:46:16.162Z,2.50
2023-05-21T09:48:43.484Z,2.33
2023-05-21T09:51:16.176Z,2.80
2023-05-21T09:53:54.354Z,2.80
2023-05-21T09:56:25.259Z,2.50
2023-05-21T09:58:56.883Z,2.40
2023-05-21T10:01:27.379Z,2.40
2023-05-21T10:03:58.973Z,2.53
2023-05-21T10:06:31.184Z,2.43
2023-05-21T10:09:10.731Z,2.70
2023-05-21T10:11:37.969Z,2.17
2023-05-21T10:14:04.825Z,2.77
2023-05-21T10:16:34.184Z,4.23
2023-05-21T10:19:01.022Z,2.60
2023-05-21T10:21:28.114Z,2.73
2023-05-21T10:23:57.450Z,2.50
2023-05-21T10:26:25.105Z,2.87
2023-05-21T10:28:52.252Z,3.00
2023-05-21T10:31:19.960Z,2.50
2023-05-21T10:33:47.305Z,2.90
2023-05-21T10:36:17.378Z,3.13
2023-05-21T10:38:44.797Z,2.80
2023-05-21T10:41:13.750Z,3.00
2023-05-21T10:44:05.335Z,2.47
2023-05-21T10:46:58.385Z,2.70
2023-05-21T10:49:36.834Z,2.77
2023-05-21T10:52:18.468Z,3.03
2023-05-21T10:55:12.596Z,2.83
2023-05-21T10:57:57.187Z,3.40
2023-05-21T11:00:25.827Z,3.60
2023-05-21T11:02:53.180Z,2.77
2023-05-21T11:05:56.132Z,2.63
2023-05-21T11:08:36.242Z,2.80
2023-05-21T11:11:03.920Z,3.10
2023-05-21T11:13:49.520Z,2.77
2023-05-21T11:16:17.118Z,2.90
2023-05-21T11:18:46.432Z,2.90
2023-05-21T11:21:18.099Z,3.23
2023-05-21T11:23:50.867Z,3.17
2023-05-21T11:26:18.022Z,3.03
2023-05-21T11:28:44.675Z,3.00
2023-05-21T11:31:25.828Z,3.43
2023-05-21T11:34:16.296Z,3.17
2023-05-21T11:36:47.763Z,3.70
2023-05-21T11:39:15.476Z,3.27
2023-05-21T11:42:04.714Z,3.17
2023-05-21T11:44:45.221Z,3.10
2023-05-21T11:47:15.075Z,3.07
2023-05-21T11:49:42.648Z,3.60
2023-05-21T11:52:11.122Z,4.20
2023-05-21T11:54:44.096Z,3.03
2023-05-21T11:57:11.102Z,3.67
2023-05-21T11:59:38.140Z,3.90
2023-05-21T12:02:05.341Z,3.40
2023-05-21T12:04:39.304Z,3.23
2023-05-21T12:07:09.602Z,3.50
2023-05-21T12:09:43.218Z,3.40
2023-05-21T12:12:11.428Z,3.53
2023-05-21T12:14:38.225Z,2.73
2023-05-21T12:17:05.896Z,2.80
2023-05-21T12:19:34.299Z,3.63
2023-05-21T12:22:05.495Z,3.40
2023-05-21T12:24:33.548Z,4.30
2023-05-21T12:27:02.235Z,3.23
2023-05-21T12:29:31.506Z,4.63
2023-05-21T12:32:03.248Z,3.63
2023-05-21T12:34:45.541Z,5.47
2023-05-21T12:37:16.274Z,3.23
2023-05-21T12:39:47.643Z,3.50
2023-05-21T12:42:14.746Z,3.33
2023-05-21T12:44:46.331Z,2.83
2023-05-21T12:47:14.057Z,2.90
2023-05-21T12:49:42.411Z,3.33
2023-05-21T12:52:13.258Z,3.30
2023-05-21T12:54:41.989Z,3.30
2023-05-21T12:57:19.605Z,3.00
2023-05-21T12:59:53.357Z,3.33
2023-05-21T13:02:25.212Z,3.33
2023-05-21T13:04:56.955Z,3.20
2023-05-21T13:07:24.902Z,3.20
2023-05-21T13:09:53.365Z,4.03
2023-05-21T13:12:30.769Z,3.20
2023-05-21T13:14:58.963Z,3.20
2023-05-21T13:17:27.693Z,3.17
2023-05-21T13:20:12.737Z,3.77
2023-05-21T13:22:48.343Z,3.40
2023-05-21T13:25:24.636Z,3.20
2023-05-21T13:27:52.850Z,3.37
2023-05-21T13:30:20.268Z,3.33
2023-05-21T13:32:48.022Z,3.43
2023-05-21T13:35:16.587Z,3.60
2023-05-21T13:37:43.624Z,3.40
2023-05-21T13:40:11.738Z,3.20
2023-05-21T13:42:38.885Z,3.53
2023-05-21T13:45:10.563Z,3.33
2023-05-21T13:47:40.259Z,3.20
2023-05-21T13:50:08.352Z,3.20
2023-05-21T13:52:35.123Z,3.57
2023-05-21T13:55:01.760Z,3.53
2023-05-21T13:57:30.801Z,3.67
2023-05-21T14:00:01.312Z,3.23
2023-05-21T14:02:28.393Z,4.00
2023-05-21T14:04:55.164Z,3.10
2023-05-21T14:07:22.313Z,3.40
2023-05-21T14:09:49.484Z,3.30
2023-05-21T14:12:17.020Z,3.17
2023-05-21T14:14:43.845Z,3.70
2023-05-21T14:17:10.517Z,3.60
2023-05-21T14:19:37.232Z,3.07
2023-05-21T14:22:03.943Z,3.37
2023-05-21T14:24:30.686Z,2.77
2023-05-21T14:26:57.405Z,2.97
2023-05-21T14:29:24.095Z,3.40
2023-05-21T14:31:50.832Z,3.50
2023-05-21T14:34:17.618Z,3.13
2023-05-21T14:36:44.277Z,3.20
2023-05-21T14:39:11.148Z,2.67
2023-05-21T14:41:39.829Z,3.57
2023-05-21T14:44:06.798Z,3.17
2023-05-21T14:46:33.668Z,3.10
2023-05-21T14:49:00.884Z,3.13
2023-05-21T14:51:27.640Z,3.07
2023-05-21T14:53:54.478Z,3.03
2023-05-21T14:56:22.110Z,3.00
2023-05-21T14:58:49.403Z,3.57
2023-05-21T15:01:16.353Z,3.73
2023-05-21T15:03:43.285Z,2.97
2023-05-21T15:06:10.076Z,3.40
2023-05-21T15:08:36.838Z,3.00
2023-05-21T15:11:03.531Z,3.47
2023-05-21T15:13:30.274Z,4.10
2023-05-21T15:15:57.183Z,3.67
2023-05-21T15:18:24.952Z,4.50
2023-05-21T15:20:51.900Z,4.00
2023-05-21T15:23:18.851Z,3.30
2023-05-21T15:25:46.076Z,3.97
2023-05-21T15:28:13.074Z,4.20
2023-05-21T15:30:40.207Z,8.70
2023-05-21T15:33:06.826Z,11.73
2023-05-21T15:35:35.389Z,12.07
2023-05-21T15:38:02.843Z,7.40
2023-05-21T15:40:29.583Z,5.73
2023-05-21T15:42:56.333Z,15.20
2023-05-21T15:45:24.833Z,10.13
2023-05-21T15:47:51.499Z,5.33
2023-05-21T15:50:18.315Z,3.73
2023-05-21T15:52:44.953Z,3.80
2023-05-21T15:55:11.648Z,3.60
2023-05-21T15:57:38.450Z,3.87
2023-05-21T16:00:06.378Z,4.37
2023-05-21T16:02:33.214Z,3.90
2023-05-21T16:04:59.890Z,4.67
2023-05-21T16:07:26.554Z,4.37
2023-05-21T16:09:53.239Z,3.73
2023-05-21T16:12:20.118Z,3.17
2023-05-21T16:14:50.157Z,3.30
2023-05-21T16:17:17.396Z,3.33
2023-05-21T16:19:44.020Z,3.13
2023-05-21T16:22:11.047Z,3.47
2023-05-21T16:24:37.992Z,3.07
2023-05-21T16:27:05.097Z,4.67
2023-05-21T16:29:31.958Z,2.90
2023-05-21T16:31:58.722Z,4.00
2023-05-21T16:34:25.750Z,2.90
2023-05-21T16:36:52.516Z,3.83
2023-05-21T16:39:19.241Z,3.97
2023-05-21T16:41:46.120Z,3.80
2023-05-21T16:44:12.896Z,4.10
2023-05-21T16:46:39.618Z,4.17
2023-05-21T16:49:06.426Z,5.00
2023-05-21T16:51:33.097Z,4.27
2023-05-21T16:53:59.835Z,3.20
2023-05-21T16:56:27.646Z,2.97
2023-05-21T16:58:54.419Z,3.33
2023-05-21T17:01:21.225Z,3.03
2023-05-21T17:03:47.981Z,2.77
2023-05-21T17:06:15.063Z,2.73
2023-05-21T17:08:42.754Z,3.47
2023-05-21T17:11:09.538Z,3.70
2023-05-21T17:13:36.338Z,3.57
2023-05-21T17:16:03.071Z,3.30
2023-05-21T17:18:30.037Z,3.57
2023-05-21T17:20:56.793Z,3.30
2023-05-21T17:23:23.667Z,3.77
2023-05-21T17:25:50.422Z,3.60
2023-05-21T17:28:17.184Z,3.37
2023-05-21T17:30:43.843Z,3.80
2023-05-21T17:33:10.819Z,3.67
2023-05-21T17:35:38.729Z,3.10
2023-05-21T17:38:05.979Z,3.60
2023-05-21T17:40:32.652Z,3.50
2023-05-21T17:42:59.339Z,3.30
2023-05-21T17:45:25.983Z,3.40
2023-05-21T17:47:52.819Z,4.23
2023-05-21T17:50:19.476Z,4.30
2023-05-21T17:52:46.274Z,4.10
2023-05-21T17:55:13.026Z,3.70
2023-05-21T17:57:39.699Z,4.47
2023-05-21T18:00:07.232Z,3.77
2023-05-21T18:02:33.957Z,3.63
2023-05-21T18:05:02.702Z,4.53
2023-05-21T18:07:29.329Z,4.77
2023-05-21T18:09:56.050Z,3.70
2023-05-21T18:12:22.687Z,4.23
2023-05-21T18:14:49.463Z,4.20
2023-05-21T18:17:16.074Z,4.67
2023-05-21T18:19:42.768Z,5.67
2023-05-21T18:22:09.507Z,5.70
2023-05-21T18:24:38.253Z,4.80
2023-05-21T18:27:05.287Z,5.17
2023-05-21T18:29:31.920Z,3.70
2023-05-21T18:31:58.740Z,3.63
2023-05-21T18:34:25.536Z,3.33
2023-05-21T18:36:54.582Z,3.80
2023-05-21T18:39:24.774Z,4.00
2023-05-21T18:41:58.646Z,3.40
2023-05-21T18:44:32.792Z,3.53
2023-05-21T18:46:59.517Z,3.53
2023-05-21T18:49:26.696Z,3.83
2023-05-21T18:51:53.625Z,3.70
2023-05-21T18:54:20.372Z,3.43
2023-05-21T18:56:47.044Z,3.93
2023-05-21T18:59:13.791Z,3.27
2023-05-21T19:01:40.627Z,3.60
2023-05-21T19:04:07.349Z,3.73
2023-05-21T19:06:34.045Z,3.50
2023-05-21T19:09:00.693Z,3.47
2023-05-21T19:11:31.107Z,3.47
2023-05-21T19:13:59.153Z,3.50
2023-05-21T19:16:25.955Z,3.60
2023-05-21T19:18:52.820Z,4.27
2023-05-21T19:21:19.706Z,3.37
2023-05-21T19:23:53.243Z,3.60
2023-05-21T19:26:22.691Z,3.70
2023-05-21T19:28:53.289Z,4.07
2023-05-21T19:31:22.431Z,3.90
2023-05-21T19:33:49.323Z,3.60
2023-05-21T19:36:16.147Z,3.90
2023-05-21T19:38:50.137Z,3.60
2023-05-21T19:41:17.931Z,4.07
2023-05-21T19:43:45.367Z,3.73
2023-05-21T19:46:12.075Z,3.70
2023-05-21T19:48:39.022Z,3.80
2023-05-21T19:51:05.913Z,4.07
2023-05-21T19:53:32.541Z,4.27
2023-05-21T19:55:59.267Z,4.07
2023-05-21T19:58:29.455Z,4.07
2023-05-21T20:00:58.420Z,4.23
2023-05-21T20:03:26.727Z,4.40
2023-05-21T20:05:53.764Z,3.93
2023-05-21T20:08:20.575Z,3.83
2023-05-21T20:10:49.618Z,4.10
2023-05-21T20:13:18.223Z,3.50
2023-05-21T20:15:44.977Z,3.93
2023-05-21T20:18:13.008Z,4.43
2023-05-21T20:20:41.137Z,3.93
2023-05-21T20:23:08.263Z,4.33
2023-05-21T20:25:34.903Z,4.70
2023-05-21T20:28:03.230Z,4.33
2023-05-21T20:30:34.429Z,4.27
2023-05-21T20:33:02.711Z,3.93
2023-05-21T20:35:30.152Z,4.07
2023-05-21T20:37:56.853Z,4.17
2023-05-21T20:40:23.641Z,4.07
2023-05-21T20:42:53.584Z,3.90
2023-05-21T20:45:21.204Z,4.10
2023-05-21T20:47:48.283Z,3.60
2023-05-21T20:50:17.687Z,3.60
2023-05-21T20:52:47.007Z,4.07
2023-05-21T20:55:14.775Z,4.20
2023-05-21T20:57:42.161Z,4.10
2023-05-21T21:00:11.965Z,3.77
2023-05-21T21:02:39.828Z,3.93
2023-05-21T21:05:10.629Z,4.13
2023-05-21T21:07:37.793Z,4.10
2023-05-21T21:10:05.254Z,3.50
2023-05-21T21:12:31.942Z,3.33
2023-05-21T21:14:58.677Z,3.77
2023-05-21T21:17:25.621Z,4.20
2023-05-21T21:19:52.407Z,4.30
2023-05-21T21:22:19.355Z,3.90
2023-05-21T21:24:46.042Z,4.73
2023-05-21T21:27:12.805Z,4.40
2023-05-21T21:29:39.839Z,3.80
2023-05-21T21:32:06.985Z,4.63
2023-05-21T21:34:33.767Z,4.20
2023-05-21T21:37:00.478Z,4.50
2023-05-21T21:39:27.229Z,5.20
2023-05-21T21:41:53.939Z,4.27
2023-05-21T21:44:20.685Z,4.20
2023-05-21T21:46:47.581Z,4.20
2023-05-21T21:49:17.266Z,4.20
2023-05-21T21:51:44.801Z,4.27
2023-05-21T21:54:11.970Z,4.10
2023-05-21T21:56:38.765Z,4.17
2023-05-21T21:59:05.726Z,4.27
2023-05-21T22:01:32.684Z,3.70
2023-05-21T22:03:59.826Z,4.03
2023-05-21T22:06:27.759Z,3.80
2023-05-21T22:08:54.976Z,4.63
2023-05-21T22:11:22.115Z,4.27
2023-05-21T22:13:49.139Z,3.50
2023-05-21T22:16:16.001Z,3.80
2023-05-21T22:18:42.725Z,3.40
2023-05-21T22:21:10.632Z,3.77
2023-05-21T22:23:38.612Z,3.63
2023-05-21T22:26:05.872Z,3.20
2023-05-21T22:28:32.768Z,3.33
2023-05-21T22:30:59.547Z,3.47
2023-05-21T22:33:26.815Z,3.50
2023-05-21T22:35:54.593Z,3.43
2023-05-21T22:38:21.585Z,3.23
2023-05-21T22:40:48.456Z,3.77
2023-05-21T22:43:15.208Z,3.00
2023-05-21T22:45:42.327Z,3.43
2023-05-21T22:48:09.823Z,3.50
2023-05-21T22:50:39.140Z,3.33
2023-05-21T22:53:06.953Z,3.40
2023-05-21T22:55:33.659Z,3.30
2023-05-21T22:58:00.577Z,3.80
2023-05-21T23:00:27.738Z,3.47
2023-05-21T23:02:54.903Z,4.37
2023-05-21T23:05:22.292Z,3.60
2023-05-21T23:07:49.162Z,3.37
2023-05-21T23:10:16.022Z,3.90
2023-05-21T23:12:42.762Z,3.43
2023-05-21T23:15:10.900Z,3.10
2023-05-21T23:17:38.496Z,3.30
2023-05-21T23:20:08.901Z,3.20
2023-05-21T23:22:35.774Z,4.10
2023-05-21T23:25:03.080Z,4.00
2023-05-21T23:27:29.816Z,3.23
2023-05-21T23:29:56.612Z,3.60
2023-05-21T23:32:23.799Z,3.43
2023-05-21T23:34:50.886Z,4.00
2023-05-21T23:37:17.894Z,3.67
2023-05-21T23:39:48.203Z,3.70
2023-05-21T23:42:16.181Z,3.33
2023-05-21T23:44:42.873Z,3.97
2023-05-21T23:47:09.942Z,3.97
2023-05-21T23:49:36.639Z,3.60
2023-05-21T23:52:03.568Z,3.60
2023-05-21T23:54:30.790Z,4.00
2023-05-21T23:56:57.530Z,4.23
2023-05-21T23:59:24.215Z,4.20
